Rockland, ME (04841)

9:09 PM EDT on April 28, 2017 (GMT -0400)
Jameson Point | | Change Station

Elev 150 ft 44.12 °N, 69.09 °W | Updated 8 seconds ago

Fog
Fog
50.0 °F
Feels Like 49 °F
N
4.0
Wind Variable Wind from SW
Gusts 6.0 mph

Today
High -- | Low -- °F
--% Chance of Precip.
Yesterday
High -- | Low -- °F
Precip. -- in
Pressure 29.96 in
Visibility 0.2 miles
Clouds
Windchill 49 °F
Dew Point 50 °F
Humidity 100%
Rainfall 0.07 in
Snow Depth Not available.
5:31 AM 7:36 PM
Waxing Crescent, 9% visible
METAR KRKD 290056Z AUTO 00000KT 1/4SM FG 10/10 A2995 RMK AO2 SLP145 T01000100
Pressure 29.96 in
Visibility 0.2 miles
Clouds
Windchill 49 °F
Dew Point 50 °F
Humidity 100%
Rainfall 0.07 in
Snow Depth Not available.
5:31 AM 7:36 PM
Waxing Crescent, 9% visible
METAR KRKD 290056Z AUTO 00000KT 1/4SM FG 10/10 A2995 RMK AO2 SLP145 T01000100

Get Severe Weather Alerts

Thanks for signing up!

Be on the lookout for a verification email in your inbox.

You'll start receiving the daily forecast at 8 AM.

×

10-Day Weather Forecast

Almanac

Astronomy

Apr. 28, 2017 Rise Set
Actual Time
Civil Twilight
Nautical Twilight
Astronomical Twilight
Moon
Length of Visible Light
Length of Day
Tomorrow will be .
, % of the Moon is Illuminated

Today's Extremes

State Highs State Lows

Community

WunderPhotos

WunderBlog® & News

Nearby

Air Quality

  Air Quality AQ Index Pollutant
Not available.

Snow Depth

Station Depth Elevation

Earthquake Activity

City Distance Mag. Time & Date
Minimum magnitude displayed is 2.5.

Coastal Water Temperatures

Place Temperature

Stations

Nearby Weather Stations

Station Location Temp. Windchill Dew Point Humidity Wind Precip. Elev Updated Type
                   

Watches & Warnings

There are currently no watches in effect.